sensor_id;sensor_type;location;lat;lon;timestamp;temperature;humidity
57390;DHT22;43217;52.694;6.214;2024-01-06T00:00:35;4.10;99.90
57390;DHT22;43217;52.694;6.214;2024-01-06T00:03:01;4.10;99.90
57390;DHT22;43217;52.694;6.214;2024-01-06T00:05:26;4.10;99.90
57390;DHT22;43217;52.694;6.214;2024-01-06T00:07:52;4.10;99.90
57390;DHT22;43217;52.694;6.214;2024-01-06T00:10:18;4.10;99.90
57390;DHT22;43217;52.694;6.214;2024-01-06T00:12:44;4.10;99.90
57390;DHT22;43217;52.694;6.214;2024-01-06T00:15:09;4.10;99.90
57390;DHT22;43217;52.694;6.214;2024-01-06T00:17:36;4.00;99.90
57390;DHT22;43217;52.694;6.214;2024-01-06T00:20:01;4.00;99.90
57390;DHT22;43217;52.694;6.214;2024-01-06T00:22:28;4.00;99.90
57390;DHT22;43217;52.694;6.214;2024-01-06T00:24:53;4.00;99.90
57390;DHT22;43217;52.694;6.214;2024-01-06T00:27:19;4.00;99.90
57390;DHT22;43217;52.694;6.214;2024-01-06T00:29:45;3.90;99.90
57390;DHT22;43217;52.694;6.214;2024-01-06T00:32:10;4.00;99.90
57390;DHT22;43217;52.694;6.214;2024-01-06T00:34:36;4.00;99.90
57390;DHT22;43217;52.694;6.214;2024-01-06T00:37:02;4.00;99.90
57390;DHT22;43217;52.694;6.214;2024-01-06T00:39:27;3.90;99.90
57390;DHT22;43217;52.694;6.214;2024-01-06T00:41:53;3.90;99.90
57390;DHT22;43217;52.694;6.214;2024-01-06T00:44:18;4.00;99.90
57390;DHT22;43217;52.694;6.214;2024-01-06T00:46:45;3.90;99.90
57390;DHT22;43217;52.694;6.214;2024-01-06T00:49:10;3.90;99.90
57390;DHT22;43217;52.694;6.214;2024-01-06T00:51:36;3.90;99.90
57390;DHT22;43217;52.694;6.214;2024-01-06T00:54:01;3.80;99.90
57390;DHT22;43217;52.694;6.214;2024-01-06T00:56:27;3.80;99.90
57390;DHT22;43217;52.694;6.214;2024-01-06T00:58:54;3.80;99.90
57390;DHT22;43217;52.694;6.214;2024-01-06T01:01:20;3.80;99.90
57390;DHT22;43217;52.694;6.214;2024-01-06T01:03:46;3.80;99.90
57390;DHT22;43217;52.694;6.214;2024-01-06T01:06:11;3.80;99.90
57390;DHT22;43217;52.694;6.214;2024-01-06T01:08:37;3.80;99.90
57390;DHT22;43217;52.694;6.214;2024-01-06T01:11:02;3.80;99.90
57390;DHT22;43217;52.694;6.214;2024-01-06T01:13:28;3.70;99.90
57390;DHT22;43217;52.694;6.214;2024-01-06T01:15:54;3.70;99.90
57390;DHT22;43217;52.694;6.214;2024-01-06T01:18:19;3.70;99.90
57390;DHT22;43217;52.694;6.214;2024-01-06T01:20:45;3.80;99.90
57390;DHT22;43217;52.694;6.214;2024-01-06T01:23:10;3.70;99.90
57390;DHT22;43217;52.694;6.214;2024-01-06T01:25:36;3.70;99.90
57390;DHT22;43217;52.694;6.214;2024-01-06T01:28:02;3.70;99.90
57390;DHT22;43217;52.694;6.214;2024-01-06T01:30:27;3.70;99.90
57390;DHT22;43217;52.694;6.214;2024-01-06T01:32:53;3.70;99.90
57390;DHT22;43217;52.694;6.214;2024-01-06T01:35:18;3.60;99.90
57390;DHT22;43217;52.694;6.214;2024-01-06T01:37:44;3.60;99.90
57390;DHT22;43217;52.694;6.214;2024-01-06T01:40:10;3.60;99.90
57390;DHT22;43217;52.694;6.214;2024-01-06T01:42:36;3.50;99.90
57390;DHT22;43217;52.694;6.214;2024-01-06T01:45:03;3.50;99.90
57390;DHT22;43217;52.694;6.214;2024-01-06T01:47:29;3.60;99.90
57390;DHT22;43217;52.694;6.214;2024-01-06T01:49:55;3.50;99.90
57390;DHT22;43217;52.694;6.214;2024-01-06T01:52:22;3.50;99.90
57390;DHT22;43217;52.694;6.214;2024-01-06T01:54:48;3.50;99.90
57390;DHT22;43217;52.694;6.214;2024-01-06T01:57:15;3.50;99.90
57390;DHT22;43217;52.694;6.214;2024-01-06T01:59:41;3.50;99.90
57390;DHT22;43217;52.694;6.214;2024-01-06T02:02:08;3.50;99.90
57390;DHT22;43217;52.694;6.214;2024-01-06T02:04:34;3.40;99.90
57390;DHT22;43217;52.694;6.214;2024-01-06T02:07:00;3.40;99.90
57390;DHT22;43217;52.694;6.214;2024-01-06T02:09:25;3.40;99.90
57390;DHT22;43217;52.694;6.214;2024-01-06T02:11:56;3.40;99.90
57390;DHT22;43217;52.694;6.214;2024-01-06T02:14:22;3.40;99.90
57390;DHT22;43217;52.694;6.214;2024-01-06T02:16:47;3.40;99.90
57390;DHT22;43217;52.694;6.214;2024-01-06T02:19:13;3.40;99.90
57390;DHT22;43217;52.694;6.214;2024-01-06T02:21:42;3.40;99.90
57390;DHT22;43217;52.694;6.214;2024-01-06T02:24:09;3.30;99.90
57390;DHT22;43217;52.694;6.214;2024-01-06T02:26:34;3.30;99.90
57390;DHT22;43217;52.694;6.214;2024-01-06T02:29:00;3.20;99.90
57390;DHT22;43217;52.694;6.214;2024-01-06T02:31:27;3.20;99.90
57390;DHT22;43217;52.694;6.214;2024-01-06T02:33:53;3.20;99.90
57390;DHT22;43217;52.694;6.214;2024-01-06T02:36:18;3.20;99.90
57390;DHT22;43217;52.694;6.214;2024-01-06T02:38:44;3.20;99.90
57390;DHT22;43217;52.694;6.214;2024-01-06T02:41:10;3.20;99.90
57390;DHT22;43217;52.694;6.214;2024-01-06T02:43:35;3.20;99.90
57390;DHT22;43217;52.694;6.214;2024-01-06T02:46:01;3.20;99.90
57390;DHT22;43217;52.694;6.214;2024-01-06T02:48:27;3.20;99.90
57390;DHT22;43217;52.694;6.214;2024-01-06T02:50:55;3.20;99.90
57390;DHT22;43217;52.694;6.214;2024-01-06T02:53:20;3.20;99.90
57390;DHT22;43217;52.694;6.214;2024-01-06T02:55:46;3.20;99.90
57390;DHT22;43217;52.694;6.214;2024-01-06T02:58:11;3.10;99.90
57390;DHT22;43217;52.694;6.214;2024-01-06T03:00:37;3.10;99.90
57390;DHT22;43217;52.694;6.214;2024-01-06T03:03:03;3.10;99.90
57390;DHT22;43217;52.694;6.214;2024-01-06T03:05:29;3.10;99.90
57390;DHT22;43217;52.694;6.214;2024-01-06T03:07:54;3.10;99.90
57390;DHT22;43217;52.694;6.214;2024-01-06T03:10:20;3.10;99.90
57390;DHT22;43217;52.694;6.214;2024-01-06T03:12:45;3.10;99.90
57390;DHT22;43217;52.694;6.214;2024-01-06T03:15:11;3.00;99.90
57390;DHT22;43217;52.694;6.214;2024-01-06T03:17:37;3.10;99.90
57390;DHT22;43217;52.694;6.214;2024-01-06T03:20:03;3.10;99.90
57390;DHT22;43217;52.694;6.214;2024-01-06T03:22:29;3.10;99.90
57390;DHT22;43217;52.694;6.214;2024-01-06T03:24:55;3.10;99.90
57390;DHT22;43217;52.694;6.214;2024-01-06T03:27:20;3.10;99.90
57390;DHT22;43217;52.694;6.214;2024-01-06T03:29:46;3.10;99.90
57390;DHT22;43217;52.694;6.214;2024-01-06T03:32:12;3.00;99.90
57390;DHT22;43217;52.694;6.214;2024-01-06T03:34:37;3.10;99.90
57390;DHT22;43217;52.694;6.214;2024-01-06T03:37:03;3.00;99.90
57390;DHT22;43217;52.694;6.214;2024-01-06T03:39:29;3.10;99.90
57390;DHT22;43217;52.694;6.214;2024-01-06T03:41:54;3.10;99.90
57390;DHT22;43217;52.694;6.214;2024-01-06T03:44:20;3.10;99.90
57390;DHT22;43217;52.694;6.214;2024-01-06T03:46:45;3.10;99.90
57390;DHT22;43217;52.694;6.214;2024-01-06T03:49:11;3.10;99.90
57390;DHT22;43217;52.694;6.214;2024-01-06T03:51:37;3.10;99.90
57390;DHT22;43217;52.694;6.214;2024-01-06T03:54:02;3.10;99.90
57390;DHT22;43217;52.694;6.214;2024-01-06T03:56:28;3.00;99.90
57390;DHT22;43217;52.694;6.214;2024-01-06T03:58:53;3.00;99.90
57390;DHT22;43217;52.694;6.214;2024-01-06T04:01:20;3.00;99.90
57390;DHT22;43217;52.694;6.214;2024-01-06T04:03:46;3.00;99.90
57390;DHT22;43217;52.694;6.214;2024-01-06T04:06:12;2.90;99.90
57390;DHT22;43217;52.694;6.214;2024-01-06T04:08:39;2.90;99.90
57390;DHT22;43217;52.694;6.214;2024-01-06T04:11:05;2.90;99.90
57390;DHT22;43217;52.694;6.214;2024-01-06T04:13:31;2.90;99.90
57390;DHT22;43217;52.694;6.214;2024-01-06T04:15:57;2.90;99.90
57390;DHT22;43217;52.694;6.214;2024-01-06T04:18:22;2.90;99.90
57390;DHT22;43217;52.694;6.214;2024-01-06T04:20:48;2.90;99.90
57390;DHT22;43217;52.694;6.214;2024-01-06T04:23:13;2.90;99.90
57390;DHT22;43217;52.694;6.214;2024-01-06T04:25:39;2.90;99.90
57390;DHT22;43217;52.694;6.214;2024-01-06T04:28:04;2.90;99.90
57390;DHT22;43217;52.694;6.214;2024-01-06T04:30:30;2.90;99.90
57390;DHT22;43217;52.694;6.214;2024-01-06T04:32:56;2.80;99.90
57390;DHT22;43217;52.694;6.214;2024-01-06T04:35:23;2.80;99.90
57390;DHT22;43217;52.694;6.214;2024-01-06T04:37:49;2.80;99.90
57390;DHT22;43217;52.694;6.214;2024-01-06T04:40:15;2.80;99.90
57390;DHT22;43217;52.694;6.214;2024-01-06T04:42:40;2.80;99.90
57390;DHT22;43217;52.694;6.214;2024-01-06T04:45:06;2.80;99.90
57390;DHT22;43217;52.694;6.214;2024-01-06T04:47:32;2.80;99.90
57390;DHT22;43217;52.694;6.214;2024-01-06T04:49:58;2.80;99.90
57390;DHT22;43217;52.694;6.214;2024-01-06T04:52:23;2.80;99.90
57390;DHT22;43217;52.694;6.214;2024-01-06T04:54:49;2.70;99.90
57390;DHT22;43217;52.694;6.214;2024-01-06T04:57:14;2.70;99.90
57390;DHT22;43217;52.694;6.214;2024-01-06T04:59:41;2.70;99.90
57390;DHT22;43217;52.694;6.214;2024-01-06T05:02:07;2.70;99.90
57390;DHT22;43217;52.694;6.214;2024-01-06T05:04:32;2.80;99.90
57390;DHT22;43217;52.694;6.214;2024-01-06T05:06:58;2.80;99.90
57390;DHT22;43217;52.694;6.214;2024-01-06T05:09:25;2.80;99.90
57390;DHT22;43217;52.694;6.214;2024-01-06T05:11:51;2.80;99.90
57390;DHT22;43217;52.694;6.214;2024-01-06T05:14:16;2.80;99.90
57390;DHT22;43217;52.694;6.214;2024-01-06T05:16:42;2.80;99.90
57390;DHT22;43217;52.694;6.214;2024-01-06T05:19:08;2.70;99.90
57390;DHT22;43217;52.694;6.214;2024-01-06T05:21:34;2.70;99.90
57390;DHT22;43217;52.694;6.214;2024-01-06T05:24:00;2.70;99.90
57390;DHT22;43217;52.694;6.214;2024-01-06T05:26:26;2.70;99.90
57390;DHT22;43217;52.694;6.214;2024-01-06T05:28:52;2.70;99.90
57390;DHT22;43217;52.694;6.214;2024-01-06T05:31:17;2.70;99.90
57390;DHT22;43217;52.694;6.214;2024-01-06T05:33:43;2.70;99.90
57390;DHT22;43217;52.694;6.214;2024-01-06T05:36:09;2.60;99.90
57390;DHT22;43217;52.694;6.214;2024-01-06T05:38:36;2.60;99.90
57390;DHT22;43217;52.694;6.214;2024-01-06T05:41:01;2.60;99.90
57390;DHT22;43217;52.694;6.214;2024-01-06T05:43:27;2.60;99.90
57390;DHT22;43217;52.694;6.214;2024-01-06T05:45:53;2.60;99.90
57390;DHT22;43217;52.694;6.214;2024-01-06T05:48:18;2.60;99.90
57390;DHT22;43217;52.694;6.214;2024-01-06T05:50:44;2.60;99.90
57390;DHT22;43217;52.694;6.214;2024-01-06T05:53:09;2.60;99.90
57390;DHT22;43217;52.694;6.214;2024-01-06T05:55:36;2.50;99.90
57390;DHT22;43217;52.694;6.214;2024-01-06T05:58:01;2.60;99.90
57390;DHT22;43217;52.694;6.214;2024-01-06T06:00:27;2.50;99.90
57390;DHT22;43217;52.694;6.214;2024-01-06T06:02:53;2.60;99.90
57390;DHT22;43217;52.694;6.214;2024-01-06T06:05:18;2.50;99.90
57390;DHT22;43217;52.694;6.214;2024-01-06T06:07:45;2.50;99.90
57390;DHT22;43217;52.694;6.214;2024-01-06T06:10:11;2.50;99.90
57390;DHT22;43217;52.694;6.214;2024-01-06T06:12:39;2.50;99.90
57390;DHT22;43217;52.694;6.214;2024-01-06T06:15:05;2.50;99.90
57390;DHT22;43217;52.694;6.214;2024-01-06T06:17:32;2.50;99.90
57390;DHT22;43217;52.694;6.214;2024-01-06T06:19:58;2.40;99.90
57390;DHT22;43217;52.694;6.214;2024-01-06T06:22:24;2.40;99.90
57390;DHT22;43217;52.694;6.214;2024-01-06T06:24:52;2.40;99.90
57390;DHT22;43217;52.694;6.214;2024-01-06T06:27:18;2.40;99.90
57390;DHT22;43217;52.694;6.214;2024-01-06T06:29:43;2.40;99.90
57390;DHT22;43217;52.694;6.214;2024-01-06T06:32:09;2.30;99.90
57390;DHT22;43217;52.694;6.214;2024-01-06T06:34:34;2.30;99.90
57390;DHT22;43217;52.694;6.214;2024-01-06T06:37:00;2.30;99.90
57390;DHT22;43217;52.694;6.214;2024-01-06T06:39:25;2.40;99.90
57390;DHT22;43217;52.694;6.214;2024-01-06T06:41:52;2.30;99.90
57390;DHT22;43217;52.694;6.214;2024-01-06T06:44:18;2.40;99.90
57390;DHT22;43217;52.694;6.214;2024-01-06T06:46:43;2.40;99.90
57390;DHT22;43217;52.694;6.214;2024-01-06T06:49:09;2.40;99.90
57390;DHT22;43217;52.694;6.214;2024-01-06T06:51:35;2.40;99.90
57390;DHT22;43217;52.694;6.214;2024-01-06T06:54:00;2.40;99.90
57390;DHT22;43217;52.694;6.214;2024-01-06T06:56:26;2.50;99.90
57390;DHT22;43217;52.694;6.214;2024-01-06T06:58:51;2.40;99.90
57390;DHT22;43217;52.694;6.214;2024-01-06T07:01:18;2.40;99.90
57390;DHT22;43217;52.694;6.214;2024-01-06T07:03:43;2.40;99.90
57390;DHT22;43217;52.694;6.214;2024-01-06T07:06:12;2.40;99.90
57390;DHT22;43217;52.694;6.214;2024-01-06T07:08:37;2.40;99.90
57390;DHT22;43217;52.694;6.214;2024-01-06T07:11:04;2.40;99.90
57390;DHT22;43217;52.694;6.214;2024-01-06T07:13:29;2.30;99.90
57390;DHT22;43217;52.694;6.214;2024-01-06T07:15:55;2.30;99.90
57390;DHT22;43217;52.694;6.214;2024-01-06T07:18:21;2.30;99.90
57390;DHT22;43217;52.694;6.214;2024-01-06T07:20:48;2.30;99.90
57390;DHT22;43217;52.694;6.214;2024-01-06T07:23:14;2.30;99.90
57390;DHT22;43217;52.694;6.214;2024-01-06T07:25:41;2.30;99.90
57390;DHT22;43217;52.694;6.214;2024-01-06T07:28:06;2.30;99.90
57390;DHT22;43217;52.694;6.214;2024-01-06T07:30:34;2.30;99.90
57390;DHT22;43217;52.694;6.214;2024-01-06T07:32:59;2.30;99.90
57390;DHT22;43217;52.694;6.214;2024-01-06T07:35:25;2.30;99.90
57390;DHT22;43217;52.694;6.214;2024-01-06T07:37:51;2.30;99.90
57390;DHT22;43217;52.694;6.214;2024-01-06T07:40:16;2.20;99.90
57390;DHT22;43217;52.694;6.214;2024-01-06T07:42:43;2.20;99.90
57390;DHT22;43217;52.694;6.214;2024-01-06T07:45:09;2.20;99.90
57390;DHT22;43217;52.694;6.214;2024-01-06T07:47:35;2.20;99.90
57390;DHT22;43217;52.694;6.214;2024-01-06T07:50:02;2.30;99.90
57390;DHT22;43217;52.694;6.214;2024-01-06T07:52:30;2.30;99.90
57390;DHT22;43217;52.694;6.214;2024-01-06T07:54:56;2.30;99.90
57390;DHT22;43217;52.694;6.214;2024-01-06T07:57:21;2.20;99.90
57390;DHT22;43217;52.694;6.214;2024-01-06T07:59:47;2.20;99.90
57390;DHT22;43217;52.694;6.214;2024-01-06T08:02:12;2.30;99.90
57390;DHT22;43217;52.694;6.214;2024-01-06T08:04:38;2.20;99.90
57390;DHT22;43217;52.694;6.214;2024-01-06T08:07:04;2.30;99.90
57390;DHT22;43217;52.694;6.214;2024-01-06T08:09:29;2.20;99.90
57390;DHT22;43217;52.694;6.214;2024-01-06T08:11:55;2.20;99.90
57390;DHT22;43217;52.694;6.214;2024-01-06T08:14:20;2.20;99.90
57390;DHT22;43217;52.694;6.214;2024-01-06T08:16:46;2.20;99.90
57390;DHT22;43217;52.694;6.214;2024-01-06T08:19:12;2.30;99.90
57390;DHT22;43217;52.694;6.214;2024-01-06T08:21:37;2.30;99.90
57390;DHT22;43217;52.694;6.214;2024-01-06T08:24:03;2.30;99.90
57390;DHT22;43217;52.694;6.214;2024-01-06T08:26:29;2.30;99.90
57390;DHT22;43217;52.694;6.214;2024-01-06T08:28:54;2.30;99.90
57390;DHT22;43217;52.694;6.214;2024-01-06T08:31:20;2.40;99.90
57390;DHT22;43217;52.694;6.214;2024-01-06T08:33:46;2.30;99.90
57390;DHT22;43217;52.694;6.214;2024-01-06T08:36:12;2.30;99.90
57390;DHT22;43217;52.694;6.214;2024-01-06T08:38:38;2.30;99.90
57390;DHT22;43217;52.694;6.214;2024-01-06T08:41:03;2.20;99.90
57390;DHT22;43217;52.694;6.214;2024-01-06T08:43:29;2.20;99.90
57390;DHT22;43217;52.694;6.214;2024-01-06T08:45:55;2.20;99.90
57390;DHT22;43217;52.694;6.214;2024-01-06T08:48:20;2.20;99.90
57390;DHT22;43217;52.694;6.214;2024-01-06T08:50:47;2.20;99.90
57390;DHT22;43217;52.694;6.214;2024-01-06T08:53:12;2.10;99.90
57390;DHT22;43217;52.694;6.214;2024-01-06T08:55:38;2.20;99.90
57390;DHT22;43217;52.694;6.214;2024-01-06T08:58:03;2.20;99.90
57390;DHT22;43217;52.694;6.214;2024-01-06T09:00:29;2.20;99.90
57390;DHT22;43217;52.694;6.214;2024-01-06T09:02:55;2.20;99.90
57390;DHT22;43217;52.694;6.214;2024-01-06T09:05:20;2.20;99.90
57390;DHT22;43217;52.694;6.214;2024-01-06T09:07:46;2.20;99.90
57390;DHT22;43217;52.694;6.214;2024-01-06T09:10:18;2.20;99.90
57390;DHT22;43217;52.694;6.214;2024-01-06T09:12:44;2.20;99.90
57390;DHT22;43217;52.694;6.214;2024-01-06T09:15:10;2.30;99.90
57390;DHT22;43217;52.694;6.214;2024-01-06T09:17:36;2.30;99.90
57390;DHT22;43217;52.694;6.214;2024-01-06T09:20:02;2.30;99.90
57390;DHT22;43217;52.694;6.214;2024-01-06T09:22:28;2.30;99.90
57390;DHT22;43217;52.694;6.214;2024-01-06T09:24:54;2.30;99.90
57390;DHT22;43217;52.694;6.214;2024-01-06T09:27:20;2.30;99.90
57390;DHT22;43217;52.694;6.214;2024-01-06T09:29:45;2.30;99.90
57390;DHT22;43217;52.694;6.214;2024-01-06T09:32:11;2.30;99.90
57390;DHT22;43217;52.694;6.214;2024-01-06T09:34:38;2.30;99.90
57390;DHT22;43217;52.694;6.214;2024-01-06T09:37:04;2.40;99.90
57390;DHT22;43217;52.694;6.214;2024-01-06T09:39:30;2.30;99.90
57390;DHT22;43217;52.694;6.214;2024-01-06T09:41:57;2.40;99.90
57390;DHT22;43217;52.694;6.214;2024-01-06T09:44:22;2.40;99.90
57390;DHT22;43217;52.694;6.214;2024-01-06T09:46:49;2.40;99.90
57390;DHT22;43217;52.694;6.214;2024-01-06T09:49:22;2.40;99.90
57390;DHT22;43217;52.694;6.214;2024-01-06T09:51:49;2.50;99.90
57390;DHT22;43217;52.694;6.214;2024-01-06T09:54:23;2.40;99.90
57390;DHT22;43217;52.694;6.214;2024-01-06T09:56:51;2.40;99.90
57390;DHT22;43217;52.694;6.214;2024-01-06T09:59:18;2.40;99.90
57390;DHT22;43217;52.694;6.214;2024-01-06T10:01:45;2.50;99.90
57390;DHT22;43217;52.694;6.214;2024-01-06T10:04:10;2.50;99.90
57390;DHT22;43217;52.694;6.214;2024-01-06T10:06:36;2.50;99.90
57390;DHT22;43217;52.694;6.214;2024-01-06T10:09:02;2.50;99.90
57390;DHT22;43217;52.694;6.214;2024-01-06T10:11:27;2.50;99.90
57390;DHT22;43217;52.694;6.214;2024-01-06T10:13:53;2.50;99.90
57390;DHT22;43217;52.694;6.214;2024-01-06T10:16:21;2.50;99.90
57390;DHT22;43217;52.694;6.214;2024-01-06T10:18:47;2.50;99.90
57390;DHT22;43217;52.694;6.214;2024-01-06T10:21:13;2.50;99.90
57390;DHT22;43217;52.694;6.214;2024-01-06T10:23:42;2.50;99.90
57390;DHT22;43217;52.694;6.214;2024-01-06T10:26:12;2.50;99.90
57390;DHT22;43217;52.694;6.214;2024-01-06T10:28:39;2.60;99.90
57390;DHT22;43217;52.694;6.214;2024-01-06T10:31:04;2.50;99.90
57390;DHT22;43217;52.694;6.214;2024-01-06T10:33:32;2.50;99.90
57390;DHT22;43217;52.694;6.214;2024-01-06T10:36:00;2.60;99.90
57390;DHT22;43217;52.694;6.214;2024-01-06T10:38:26;2.60;99.90
57390;DHT22;43217;52.694;6.214;2024-01-06T10:40:59;2.50;99.90
57390;DHT22;43217;52.694;6.214;2024-01-06T10:43:26;2.60;99.90
57390;DHT22;43217;52.694;6.214;2024-01-06T10:45:55;2.50;99.90
57390;DHT22;43217;52.694;6.214;2024-01-06T10:48:24;2.50;99.90
57390;DHT22;43217;52.694;6.214;2024-01-06T10:50:50;2.50;99.90
57390;DHT22;43217;52.694;6.214;2024-01-06T10:53:17;2.50;99.90
57390;DHT22;43217;52.694;6.214;2024-01-06T10:55:45;2.50;99.90
57390;DHT22;43217;52.694;6.214;2024-01-06T10:58:12;2.50;99.90
57390;DHT22;43217;52.694;6.214;2024-01-06T11:00:41;2.50;99.90
57390;DHT22;43217;52.694;6.214;2024-01-06T11:03:07;2.50;99.90
57390;DHT22;43217;52.694;6.214;2024-01-06T11:05:36;2.50;99.90
57390;DHT22;43217;52.694;6.214;2024-01-06T11:08:06;2.50;99.90
57390;DHT22;43217;52.694;6.214;2024-01-06T11:10:33;2.50;99.90
57390;DHT22;43217;52.694;6.214;2024-01-06T11:13:10;2.50;99.90
57390;DHT22;43217;52.694;6.214;2024-01-06T11:15:48;2.50;99.90
57390;DHT22;43217;52.694;6.214;2024-01-06T11:18:35;2.50;99.90
57390;DHT22;43217;52.694;6.214;2024-01-06T11:21:20;2.50;99.90
57390;DHT22;43217;52.694;6.214;2024-01-06T11:24:11;2.50;99.90
57390;DHT22;43217;52.694;6.214;2024-01-06T11:26:39;2.60;99.90
57390;DHT22;43217;52.694;6.214;2024-01-06T11:29:06;2.60;99.90
57390;DHT22;43217;52.694;6.214;2024-01-06T11:31:33;2.60;99.90
57390;DHT22;43217;52.694;6.214;2024-01-06T11:34:18;2.60;99.90
57390;DHT22;43217;52.694;6.214;2024-01-06T11:36:50;2.60;99.90
57390;DHT22;43217;52.694;6.214;2024-01-06T11:39:35;2.60;99.90
57390;DHT22;43217;52.694;6.214;2024-01-06T11:42:02;2.60;99.90
57390;DHT22;43217;52.694;6.214;2024-01-06T11:44:28;2.60;99.90
57390;DHT22;43217;52.694;6.214;2024-01-06T11:46:58;2.60;99.90
57390;DHT22;43217;52.694;6.214;2024-01-06T11:49:26;2.60;99.90
57390;DHT22;43217;52.694;6.214;2024-01-06T11:51:56;2.60;99.90
57390;DHT22;43217;52.694;6.214;2024-01-06T11:54:22;2.60;99.90
57390;DHT22;43217;52.694;6.214;2024-01-06T11:56:48;2.60;99.90
57390;DHT22;43217;52.694;6.214;2024-01-06T11:59:14;2.60;99.90
57390;DHT22;43217;52.694;6.214;2024-01-06T12:01:40;2.60;99.90
57390;DHT22;43217;52.694;6.214;2024-01-06T12:04:06;2.60;99.90
57390;DHT22;43217;52.694;6.214;2024-01-06T12:06:33;2.50;99.90
57390;DHT22;43217;52.694;6.214;2024-01-06T12:09:10;2.60;99.90
57390;DHT22;43217;52.694;6.214;2024-01-06T12:11:36;2.60;99.90
57390;DHT22;43217;52.694;6.214;2024-01-06T12:14:05;2.60;99.90
57390;DHT22;43217;52.694;6.214;2024-01-06T12:16:31;2.60;99.90
57390;DHT22;43217;52.694;6.214;2024-01-06T12:18:58;2.80;99.90
57390;DHT22;43217;52.694;6.214;2024-01-06T12:21:26;2.80;99.90
57390;DHT22;43217;52.694;6.214;2024-01-06T12:23:52;2.80;99.90
57390;DHT22;43217;52.694;6.214;2024-01-06T12:26:19;2.80;99.90
57390;DHT22;43217;52.694;6.214;2024-01-06T12:28:45;2.70;99.90
57390;DHT22;43217;52.694;6.214;2024-01-06T12:31:11;2.70;99.90
57390;DHT22;43217;52.694;6.214;2024-01-06T12:33:41;2.70;99.90
57390;DHT22;43217;52.694;6.214;2024-01-06T12:36:07;2.70;99.90
57390;DHT22;43217;52.694;6.214;2024-01-06T12:38:42;2.60;99.90
57390;DHT22;43217;52.694;6.214;2024-01-06T12:41:07;2.60;99.90
57390;DHT22;43217;52.694;6.214;2024-01-06T12:43:33;2.60;99.90
57390;DHT22;43217;52.694;6.214;2024-01-06T12:45:58;2.60;99.90
57390;DHT22;43217;52.694;6.214;2024-01-06T12:48:24;2.50;99.90
57390;DHT22;43217;52.694;6.214;2024-01-06T12:50:50;2.60;99.90
57390;DHT22;43217;52.694;6.214;2024-01-06T12:53:16;2.50;99.90
57390;DHT22;43217;52.694;6.214;2024-01-06T12:55:43;2.50;99.90
57390;DHT22;43217;52.694;6.214;2024-01-06T12:58:09;2.50;99.90
57390;DHT22;43217;52.694;6.214;2024-01-06T13:00:35;2.50;99.90
57390;DHT22;43217;52.694;6.214;2024-01-06T13:03:00;2.50;99.90
57390;DHT22;43217;52.694;6.214;2024-01-06T13:05:26;2.50;99.90
57390;DHT22;43217;52.694;6.214;2024-01-06T13:07:52;2.50;99.90
57390;DHT22;43217;52.694;6.214;2024-01-06T13:10:17;2.50;99.90
57390;DHT22;43217;52.694;6.214;2024-01-06T13:12:43;2.50;99.90
57390;DHT22;43217;52.694;6.214;2024-01-06T13:15:09;2.50;99.90
57390;DHT22;43217;52.694;6.214;2024-01-06T13:17:40;2.50;99.90
57390;DHT22;43217;52.694;6.214;2024-01-06T13:20:06;2.50;99.90
57390;DHT22;43217;52.694;6.214;2024-01-06T13:22:33;2.50;99.90
57390;DHT22;43217;52.694;6.214;2024-01-06T13:24:59;2.50;99.90
57390;DHT22;43217;52.694;6.214;2024-01-06T13:27:25;2.50;99.90
57390;DHT22;43217;52.694;6.214;2024-01-06T13:29:52;2.50;99.90
57390;DHT22;43217;52.694;6.214;2024-01-06T13:32:18;2.40;99.90
57390;DHT22;43217;52.694;6.214;2024-01-06T13:34:44;2.50;99.90
57390;DHT22;43217;52.694;6.214;2024-01-06T13:37:10;2.50;99.90
57390;DHT22;43217;52.694;6.214;2024-01-06T13:39:36;2.50;99.90
57390;DHT22;43217;52.694;6.214;2024-01-06T13:42:02;2.50;99.90
57390;DHT22;43217;52.694;6.214;2024-01-06T13:44:30;2.50;99.90
57390;DHT22;43217;52.694;6.214;2024-01-06T13:46:56;2.50;99.90
57390;DHT22;43217;52.694;6.214;2024-01-06T13:49:22;2.50;99.90
57390;DHT22;43217;52.694;6.214;2024-01-06T13:51:49;2.50;99.90
57390;DHT22;43217;52.694;6.214;2024-01-06T13:54:16;2.60;99.90
57390;DHT22;43217;52.694;6.214;2024-01-06T13:56:41;2.60;99.90
57390;DHT22;43217;52.694;6.214;2024-01-06T13:59:07;2.50;99.90
57390;DHT22;43217;52.694;6.214;2024-01-06T14:01:33;2.50;99.90
57390;DHT22;43217;52.694;6.214;2024-01-06T14:04:00;2.50;99.90
57390;DHT22;43217;52.694;6.214;2024-01-06T14:06:26;2.50;99.90
57390;DHT22;43217;52.694;6.214;2024-01-06T14:08:56;2.50;99.90
57390;DHT22;43217;52.694;6.214;2024-01-06T14:11:21;2.50;99.90
57390;DHT22;43217;52.694;6.214;2024-01-06T14:13:47;2.50;99.90
57390;DHT22;43217;52.694;6.214;2024-01-06T14:16:15;2.40;99.90
57390;DHT22;43217;52.694;6.214;2024-01-06T14:18:41;2.50;99.90
57390;DHT22;43217;52.694;6.214;2024-01-06T14:21:10;2.50;99.90
57390;DHT22;43217;52.694;6.214;2024-01-06T14:23:36;2.40;99.90
57390;DHT22;43217;52.694;6.214;2024-01-06T14:26:02;2.40;99.90
57390;DHT22;43217;52.694;6.214;2024-01-06T14:28:28;2.40;99.90
57390;DHT22;43217;52.694;6.214;2024-01-06T14:30:54;2.40;99.90
57390;DHT22;43217;52.694;6.214;2024-01-06T14:33:19;2.40;99.90
57390;DHT22;43217;52.694;6.214;2024-01-06T14:35:45;2.40;99.90
57390;DHT22;43217;52.694;6.214;2024-01-06T14:38:12;2.40;99.90
57390;DHT22;43217;52.694;6.214;2024-01-06T14:40:37;2.40;99.90
57390;DHT22;43217;52.694;6.214;2024-01-06T14:43:03;2.40;99.90
57390;DHT22;43217;52.694;6.214;2024-01-06T14:45:30;2.40;99.90
57390;DHT22;43217;52.694;6.214;2024-01-06T14:47:55;2.40;99.90
57390;DHT22;43217;52.694;6.214;2024-01-06T14:50:21;2.40;99.90
57390;DHT22;43217;52.694;6.214;2024-01-06T14:52:47;2.40;99.90
57390;DHT22;43217;52.694;6.214;2024-01-06T14:55:12;2.30;99.90
57390;DHT22;43217;52.694;6.214;2024-01-06T14:57:38;2.40;99.90
57390;DHT22;43217;52.694;6.214;2024-01-06T15:00:05;2.30;99.90
57390;DHT22;43217;52.694;6.214;2024-01-06T15:02:31;2.40;99.90
57390;DHT22;43217;52.694;6.214;2024-01-06T15:04:56;2.40;99.90
57390;DHT22;43217;52.694;6.214;2024-01-06T15:07:23;2.40;99.90
57390;DHT22;43217;52.694;6.214;2024-01-06T15:09:49;2.40;99.90
57390;DHT22;43217;52.694;6.214;2024-01-06T15:12:14;2.40;99.90
57390;DHT22;43217;52.694;6.214;2024-01-06T15:14:40;2.40;99.90
57390;DHT22;43217;52.694;6.214;2024-01-06T15:17:05;2.40;99.90
57390;DHT22;43217;52.694;6.214;2024-01-06T15:19:32;2.40;99.90
57390;DHT22;43217;52.694;6.214;2024-01-06T15:21:58;2.40;99.90
57390;DHT22;43217;52.694;6.214;2024-01-06T15:24:24;2.40;99.90
57390;DHT22;43217;52.694;6.214;2024-01-06T15:26:50;2.40;99.90
57390;DHT22;43217;52.694;6.214;2024-01-06T15:29:17;2.40;99.90
57390;DHT22;43217;52.694;6.214;2024-01-06T15:31:43;2.40;99.90
57390;DHT22;43217;52.694;6.214;2024-01-06T15:34:08;2.40;99.90
57390;DHT22;43217;52.694;6.214;2024-01-06T15:36:34;2.40;99.90
57390;DHT22;43217;52.694;6.214;2024-01-06T15:38:59;2.40;99.90